Time;durP1;ratioP1;P1;durP2;ratioP2;P2;SDS_P1;SDS_P2;PMS_P1;PMS_P2;Temp;Humidity;BMP_temperature;BMP_pressure;BME280_temperature;BME280_humidity;BME280_pressure;Samples;Min_cycle;Max_cycle;Signal;HPM_P1;HPM_P2
2023/10/05 00:08:26;;;;;;;6.75;5.35;;;;;;;25.37;50.99;97147.31;6125617;23;20033;-27
2023/10/05 00:24:28;;;;;;;10.40;5.75;;;;;;;25.21;51.11;97141.81;6126491;23;20459;-27
2023/10/05 00:37:35;;;;;;;10.07;5.97;;;;;;;25.22;51.95;97135.72;6126690;23;20065;-28
2023/10/05 00:53:28;;;;;;;7.40;5.97;;;;;;;25.53;51.47;97129.09;6126530;23;20021;-27
2023/10/05 01:12:21;;;;;;;8.25;5.95;;;;;;;24.93;53.14;97111.31;6127074;23;20010;-27
2023/10/05 01:24:51;;;;;;;8.05;6.43;;;;;;;25.03;52.89;97112.53;6065615;23;20409;-27
2023/10/05 01:54:29;;;;;;;10.98;8.40;;;;;;;25.31;53.12;97104.94;6125882;23;20049;-27
2023/10/05 02:10:22;;;;;;;10.63;8.45;;;;;;;25.13;54.29;97082.50;6124342;23;20029;-27
2023/10/05 02:39:42;;;;;;;11.38;8.88;;;;;;;24.94;55.55;97076.75;6125390;23;20021;-27
2023/10/05 02:55:36;;;;;;;10.95;8.75;;;;;;;25.12;55.16;97097.63;6125697;23;20021;-27
2023/10/05 03:25:22;;;;;;;12.45;8.85;;;;;;;24.99;55.13;97089.84;6126872;23;20045;-27
2023/10/05 03:41:17;;;;;;;11.30;8.82;;;;;;;24.95;55.17;97089.38;6127176;23;20467;-27
2023/10/05 03:43:47;;;;;;;10.20;9.10;;;;;;;25.00;55.10;97089.34;6127125;23;20029;-27
2023/10/05 03:56:21;;;;;;;11.88;9.05;;;;;;;24.92;55.49;97084.78;6127306;23;20519;-27
2023/10/05 04:26:08;;;;;;;11.90;9.30;;;;;;;24.88;55.32;97084.28;6126635;23;20045;-28
2023/10/05 04:42:10;;;;;;;11.70;9.05;;;;;;;25.01;54.58;97104.72;6126496;23;20144;-27
2023/10/05 05:11:30;;;;;;;11.02;8.02;;;;;;;25.03;55.04;97116.06;6125074;23;20028;-28
2023/10/05 05:27:22;;;;;;;10.90;7.72;;;;;;;24.90;55.01;97132.47;6125668;23;20013;-28
2023/10/05 05:29:51;;;;;;;10.90;8.73;;;;;;;25.02;54.39;97133.22;6126519;23;20006;-28
2023/10/05 05:42:28;;;;;;;9.00;8.10;;;;;;;24.87;54.98;97141.03;6126439;23;20049;-28
2023/10/05 05:58:21;;;;;;;8.90;7.88;;;;;;;24.96;54.61;97143.59;6125878;23;20041;-28
2023/10/05 06:11:35;;;;;;;10.30;7.75;;;;;;;24.77;55.33;97154.41;6126081;23;20097;-28
2023/10/05 06:28:19;;;;;;;7.53;6.75;;;;;;;25.01;54.93;97154.69;6096305;23;20026;-28
2023/10/05 06:57:40;;;;;;;8.18;7.38;;;;;;;25.08;54.58;97186.72;6098596;23;20014;-28
2023/10/05 07:13:32;;;;;;;12.95;7.68;;;;;;;25.10;53.84;97167.53;6120870;23;20157;-28
2023/10/05 07:29:25;;;;;;;10.68;6.88;;;;;;;25.13;54.20;97185.94;6126992;23;20463;-28
2023/10/05 07:42:33;;;;;;;8.52;6.05;;;;;;;25.15;51.94;97197.31;6127127;23;20076;-28
2023/10/05 07:58:25;;;;;;;7.65;6.43;;;;;;;25.16;51.24;97214.72;6127429;23;20343;-28
2023/10/05 08:00:51;;;;;;;9.15;6.60;;;;;;;25.21;51.02;97213.97;6127038;23;20025;-28
2023/10/05 08:13:22;;;;;;;8.68;6.07;;;;;;;25.32;50.43;97230.63;6125340;23;20524;-28
2023/10/05 08:29:22;;;;;;;6.75;5.20;;;;;;;25.44;48.93;97240.47;6126655;23;20041;-29
2023/10/05 08:45:14;;;;;;;8.93;5.10;;;;;;;25.05;50.44;97251.56;6126726;23;20016;-28
2023/10/05 08:58:28;;;;;;;7.07;5.20;;;;;;;25.46;49.36;97257.38;6126505;23;20020;-28
2023/10/05 09:00:57;;;;;;;6.35;5.13;;;;;;;25.58;48.84;97255.34;6125781;23;20333;-28
2023/10/05 09:03:35;;;;;;;5.82;4.53;;;;;;;25.72;48.74;97254.31;6127137;23;20002;-28
2023/10/05 09:45:35;;;;;;;7.10;4.70;;;;;;;25.81;50.07;97259.63;6096677;23;20025;-28
2023/10/05 09:48:03;;;;;;;8.55;4.50;;;;;;;25.94;49.75;97270.22;6097278;23;20014;-28
2023/10/05 10:31:11;;;;;;;6.32;3.80;;;;;;;26.30;48.49;97257.97;6125754;23;20044;-28
2023/10/05 10:47:26;;;;;;;8.23;4.32;;;;;;;26.25;47.76;97210.69;6036558;23;20020;-28
2023/10/05 10:50:14;;;;;;;5.53;4.35;;;;;;;26.28;47.57;97227.16;6036409;23;20075;-28
2023/10/05 10:59:54;;;;;;;9.00;4.18;;;;;;;26.02;47.52;97215.59;6036536;23;20018;-28
2023/10/05 11:16:00;;;;;;;9.27;4.30;;;;;;;26.12;47.41;97183.47;6034984;23;20426;-28
2023/10/05 11:31:52;;;;;;;10.98;4.65;;;;;;;26.08;47.84;97174.66;6098027;23;20061;-28
2023/10/05 11:34:19;;;;;;;7.05;4.63;;;;;;;26.25;46.93;97171.78;6098138;23;20081;-28
2023/10/05 11:46:57;;;;;;;7.82;4.72;;;;;;;26.39;46.33;97165.16;6097861;23;20063;-28
2023/10/05 12:16:17;;;;;;;8.50;4.90;;;;;;;26.46;46.90;97153.47;6111619;23;20032;-28
2023/10/05 12:32:13;;;;;;;8.48;4.82;;;;;;;26.47;46.84;97143.84;6126792;23;20016;-28
2023/10/05 13:02:16;;;;;;;9.70;5.05;;;;;;;26.36;47.26;97110.56;6126181;23;20536;-28
2023/10/05 13:18:21;;;;;;;9.45;5.03;;;;;;;26.40;46.61;97116.59;6125040;23;20152;-28
2023/10/05 13:31:38;;;;;;;12.55;5.68;;;;;;;26.36;47.01;97105.75;6126430;23;20040;-28
2023/10/05 13:47:31;;;;;;;6.13;4.85;;;;;;;26.50;46.69;97105.91;6125858;23;20017;-28
2023/10/05 14:03:26;;;;;;;6.97;5.05;;;;;;;26.55;46.03;97105.13;6125965;23;20388;-28
2023/10/05 14:33:16;;;;;;;9.02;5.10;;;;;;;26.58;45.77;97082.56;6125541;23;19958;-28
2023/10/05 14:49:09;;;;;;;11.45;5.70;;;;;;;26.47;45.85;97091.75;6125898;23;20126;-28
2023/10/05 15:18:29;;;;;;;6.25;5.28;;;;;;;26.47;45.95;97079.88;6125925;23;20061;-28
2023/10/05 15:34:21;;;;;;;15.10;5.45;;;;;;;26.46;45.23;97070.03;6127507;23;20517;-28
2023/10/05 15:50:15;;;;;;;8.27;5.20;;;;;;;26.44;45.40;97075.38;6126909;23;20396;-28
2023/10/05 16:03:17;;;;;;;9.23;5.95;;;;;;;26.44;46.34;97080.94;6127217;23;20145;-28
2023/10/05 16:19:09;;;;;;;10.77;5.20;;;;;;;26.28;50.56;97079.03;6125451;23;20458;-28
2023/10/05 16:35:02;;;;;;;11.75;4.88;;;;;;;26.12;51.06;97086.16;6126798;23;20016;-28
2023/10/05 16:50:54;;;;;;;9.18;5.78;;;;;;;26.05;51.71;97092.28;6126391;23;20017;-28
2023/10/05 17:04:08;;;;;;;9.15;6.25;;;;;;;25.94;52.03;97109.03;6126339;23;20017;-28
2023/10/05 17:20:02;;;;;;;9.77;6.75;;;;;;;26.02;51.66;97116.28;6125041;23;20028;-28
2023/10/05 17:35:54;;;;;;;12.85;7.07;;;;;;;26.09;51.16;97137.97;6126131;23;20020;-28
2023/10/05 17:51:46;;;;;;;13.88;6.85;;;;;;;25.88;51.92;97131.25;6125773;23;20013;-28
2023/10/05 18:04:39;;;;;;;14.32;8.70;;;;;;;25.70;52.16;97132.63;6126126;23;20089;-28
2023/10/05 18:20:32;;;;;;;11.95;8.20;;;;;;;25.86;51.65;97146.94;6124794;23;20033;-28
2023/10/05 18:36:49;;;;;;;11.65;6.18;;;;;;;25.65;52.33;97154.84;6128011;23;20061;-28
2023/10/05 18:50:08;;;;;;;8.88;6.25;;;;;;;25.78;51.42;97166.16;6127851;23;20455;-27
2023/10/05 19:06:00;;;;;;;10.82;6.00;;;;;;;25.67;50.87;97177.31;6127260;23;20017;-28
2023/10/05 19:21:53;;;;;;;8.48;5.80;;;;;;;25.55;50.86;97186.91;6126010;23;20081;-28
2023/10/05 19:51:13;;;;;;;7.55;4.88;;;;;;;25.32;50.23;97192.50;6127571;23;20509;-28
2023/10/05 20:07:08;;;;;;;7.63;5.45;;;;;;;25.59;50.12;97192.97;6126706;23;20057;-28
2023/10/05 20:23:00;;;;;;;9.55;6.75;;;;;;;25.63;50.89;97185.91;6126002;23;20033;-28
2023/10/05 20:36:20;;;;;;;12.52;7.97;;;;;;;25.47;51.36;97178.34;6126308;23;20037;-28
2023/10/05 20:52:12;;;;;;;9.20;6.68;;;;;;;25.59;51.34;97179.09;6126501;23;20052;-28
2023/10/05 20:54:39;;;;;;;9.02;6.50;;;;;;;25.49;51.77;97181.34;6126663;23;20001;-27
2023/10/05 21:07:10;;;;;;;9.63;6.85;;;;;;;25.26;51.86;97185.44;6125998;23;20038;-28
2023/10/05 21:23:05;;;;;;;10.43;7.05;;;;;;;25.45;51.19;97163.47;6124896;23;20148;-28
2023/10/05 21:38:57;;;;;;;10.50;6.30;;;;;;;25.14;52.33;97156.19;6126306;23;20056;-27
2023/10/05 21:52:11;;;;;;;9.55;7.38;;;;;;;25.44;51.13;97142.50;6126219;23;20336;-28
2023/10/05 22:08:07;;;;;;;9.20;7.40;;;;;;;25.23;51.85;97153.88;6125547;23;20020;-28
2023/10/05 22:23:58;;;;;;;10.25;7.60;;;;;;;25.12;51.95;97156.69;6124636;23;20037;-28
2023/10/05 22:53:19;;;;;;;10.05;7.10;;;;;;;25.25;50.93;97156.91;6125938;23;20141;-28
2023/10/05 23:09:18;;;;;;;10.32;6.95;;;;;;;25.20;51.48;97163.25;6125351;23;20061;-28
2023/10/05 23:38:21;;;;;;;9.15;6.30;;;;;;;25.16;51.88;97171.06;6127717;23;20089;-27
2023/10/05 23:54:52;;;;;;;;;;;;;;;25.21;51.57;97189.00;6127272;23;20101;-28
